createdAt,value
2022-08-17T00:01:53.564Z,46
2022-08-17T00:09:28.547Z,46
2022-08-17T00:18:54.151Z,49
2022-08-17T00:27:55.680Z,53
2022-08-17T00:36:01.686Z,38
2022-08-17T00:43:54.986Z,53
2022-08-17T00:51:32.157Z,49
2022-08-17T00:59:15.815Z,55
2022-08-17T01:07:11.963Z,59
2022-08-17T01:15:46.377Z,53
2022-08-17T01:23:27.975Z,57
2022-08-17T01:32:09.211Z,47
2022-08-17T01:40:11.729Z,57
2022-08-17T01:47:49.388Z,51
2022-08-17T01:55:27.381Z,46
2022-08-17T02:03:53.106Z,57
2022-08-17T02:12:38.700Z,51
2022-08-17T02:20:10.869Z,59
2022-08-17T02:27:52.339Z,52
2022-08-17T02:36:35.693Z,59
2022-08-17T02:44:35.322Z,58
2022-08-17T02:52:42.624Z,60
2022-08-17T03:01:04.827Z,76
2022-08-17T03:08:41.229Z,76
2022-08-17T03:16:19.246Z,73
2022-08-17T03:24:42.457Z,66
2022-08-17T03:32:14.875Z,75
2022-08-17T03:39:49.194Z,67
2022-08-17T03:48:10.531Z,69
2022-08-17T03:55:50.456Z,74
2022-08-17T04:03:23.326Z,75
2022-08-17T04:11:09.535Z,71
2022-08-17T04:18:56.500Z,69
2022-08-17T04:26:53.515Z,79
2022-08-17T04:35:14.834Z,82
2022-08-17T04:42:42.995Z,70
2022-08-17T04:50:43.448Z,78
2022-08-17T04:58:33.175Z,67
2022-08-17T05:06:43.249Z,81
2022-08-17T05:14:19.880Z,75
2022-08-17T05:21:44.632Z,82
2022-08-17T05:30:14.239Z,74
2022-08-17T05:37:57.037Z,81
2022-08-17T05:45:23.648Z,79
2022-08-17T05:53:35.201Z,81
2022-08-17T06:01:20.215Z,82
2022-08-17T06:08:47.382Z,76
2022-08-17T06:16:26.067Z,80
2022-08-17T06:24:09.046Z,73
2022-08-17T06:32:12.167Z,75
2022-08-17T06:39:47.720Z,77
2022-08-17T06:48:04.828Z,72
2022-08-17T06:55:55.489Z,68
2022-08-17T07:04:11.533Z,76
2022-08-17T07:11:50.376Z,65
2022-08-17T07:19:54.153Z,66
2022-08-17T07:27:41.681Z,65
2022-08-17T07:35:31.045Z,65
2022-08-17T07:43:08.819Z,55
2022-08-17T07:51:00.087Z,55
2022-08-17T07:59:33.319Z,58
2022-08-17T08:08:18.923Z,55
2022-08-17T08:16:02.145Z,48
2022-08-17T08:24:57.245Z,55
2022-08-17T08:32:30.510Z,43
2022-08-17T08:41:50.576Z,41
2022-08-17T08:50:38.678Z,37
2022-08-17T08:59:17.010Z,42
2022-08-17T09:07:48.632Z,30
2022-08-17T09:15:33.074Z,37
2022-08-17T09:23:44.983Z,33
2022-08-17T09:31:11.563Z,30
2022-08-17T09:38:56.519Z,22
2022-08-17T09:46:34.712Z,26
2022-08-17T09:54:35.164Z,18
2022-08-17T10:02:47.633Z,19
2022-08-17T10:10:32.359Z,21
2022-08-17T10:18:50.975Z,19
2022-08-17T10:28:06.509Z,18
2022-08-17T10:36:05.319Z,20
2022-08-17T10:48:29.425Z,16
2022-08-17T11:07:14.327Z,13
2022-08-17T11:14:56.370Z,17
2022-08-17T11:22:46.797Z,14
2022-08-17T11:30:20.755Z,16
2022-08-17T11:38:04.675Z,16
2022-08-17T11:46:05.773Z,13
2022-08-17T11:54:32.098Z,13
2022-08-17T12:02:31.403Z,15
2022-08-17T12:10:04.844Z,17
2022-08-17T12:18:16.686Z,18
2022-08-17T12:25:52.879Z,15
2022-08-17T12:34:13.791Z,18
2022-08-17T12:42:01.504Z,19
2022-08-17T12:49:34.525Z,14
2022-08-17T12:57:46.273Z,13
2022-08-17T13:05:24.138Z,18
2022-08-17T13:12:48.570Z,18
2022-08-17T13:20:48.000Z,15
2022-08-17T13:28:38.475Z,18
2022-08-17T13:37:42.601Z,16
2022-08-17T13:45:22.328Z,17
2022-08-17T13:53:11.756Z,16
2022-08-17T14:01:51.035Z,18
2022-08-17T14:09:54.845Z,12
2022-08-17T14:17:40.687Z,14
2022-08-17T14:25:19.357Z,15
2022-08-17T14:33:21.087Z,18
2022-08-17T14:40:51.878Z,16
2022-08-17T14:48:34.836Z,16
2022-08-17T14:56:17.851Z,17
2022-08-17T15:04:32.144Z,13
2022-08-17T15:12:21.431Z,13
2022-08-17T15:19:57.826Z,11
2022-08-17T15:27:33.768Z,15
2022-08-17T15:35:31.032Z,14
2022-08-17T15:43:09.144Z,14
2022-08-17T15:50:40.694Z,14
2022-08-17T15:58:32.292Z,10
2022-08-17T16:08:36.610Z,15
2022-08-17T16:16:33.131Z,22
2022-08-17T16:24:35.964Z,21
2022-08-17T16:32:31.344Z,19
2022-08-17T16:40:09.978Z,22
2022-08-17T16:47:43.405Z,20
2022-08-17T16:55:46.938Z,22
2022-08-17T17:03:35.596Z,20
2022-08-17T17:11:15.133Z,27
2022-08-17T17:19:35.884Z,8
2022-08-17T17:27:11.230Z,7
2022-08-17T17:35:09.771Z,8
2022-08-17T17:42:46.404Z,7
2022-08-17T17:51:10.936Z,7
2022-08-17T17:59:46.231Z,8
2022-08-17T18:07:19.328Z,8
2022-08-17T18:15:07.587Z,8
2022-08-17T18:22:54.765Z,11
2022-08-17T18:30:33.916Z,9
2022-08-17T18:38:30.965Z,12
2022-08-17T18:46:09.042Z,10
2022-08-17T18:54:00.156Z,14
2022-08-17T19:01:41.624Z,11
2022-08-17T19:09:46.638Z,16
2022-08-17T19:17:24.114Z,14
2022-08-17T19:25:03.938Z,15
2022-08-17T19:33:34.903Z,12
2022-08-17T19:41:27.944Z,18
2022-08-17T19:49:40.655Z,13
2022-08-17T19:57:18.586Z,12
2022-08-17T20:05:05.491Z,14
2022-08-17T20:13:33.115Z,18
2022-08-17T20:21:30.515Z,18
2022-08-17T20:29:29.626Z,17
2022-08-17T20:37:10.525Z,12
2022-08-17T20:44:55.560Z,15
2022-08-17T20:53:11.679Z,15
2022-08-17T21:00:38.965Z,18
2022-08-17T21:08:28.159Z,15
2022-08-17T21:16:40.198Z,18
2022-08-17T21:24:18.217Z,23
2022-08-17T21:32:32.337Z,21
2022-08-17T21:40:40.035Z,21
2022-08-17T21:48:10.492Z,17
2022-08-17T21:55:55.772Z,17
2022-08-17T22:03:48.063Z,24
2022-08-17T22:11:39.235Z,20
2022-08-17T22:19:37.490Z,19
2022-08-17T22:27:12.378Z,25
2022-08-17T22:34:38.960Z,29
2022-08-17T22:42:19.070Z,24
2022-08-17T22:49:53.083Z,19
2022-08-17T22:57:42.860Z,23
2022-08-17T23:05:26.853Z,23
2022-08-17T23:17:40.180Z,19
2022-08-17T23:25:29.329Z,25
2022-08-17T23:32:54.458Z,19
2022-08-17T23:40:39.446Z,27
2022-08-17T23:48:10.253Z,20
2022-08-17T23:56:01.587Z,20
